sensor_id;sensor_type;location;lat;lon;timestamp;pressure;altitude;pressure_sealevel;temperature;humidity
59873;BME280;50750;51.636;4.948;2022-12-07T00:00:06;102009.98;;;10.32;62.05
59873;BME280;50750;51.636;4.948;2022-12-07T00:02:52;102011.73;;;10.31;62.03
59873;BME280;50750;51.636;4.948;2022-12-07T00:05:18;102011.05;;;10.30;62.09
59873;BME280;50750;51.636;4.948;2022-12-07T00:07:44;102011.05;;;10.29;62.05
59873;BME280;50750;51.636;4.948;2022-12-07T00:10:10;102010.71;;;10.29;62.15
59873;BME280;50750;51.636;4.948;2022-12-07T00:12:35;102011.05;;;10.28;62.11
59873;BME280;50750;51.636;4.948;2022-12-07T00:15:02;102009.66;;;10.28;62.16
59873;BME280;50750;51.636;4.948;2022-12-07T00:17:28;102004.77;;;10.28;62.06
59873;BME280;50750;51.636;4.948;2022-12-07T00:19:54;102001.27;;;10.27;62.12
59873;BME280;50750;51.636;4.948;2022-12-07T00:22:20;101999.52;;;10.26;62.11
59873;BME280;50750;51.636;4.948;2022-12-07T00:24:46;101998.80;;;10.26;62.22
59873;BME280;50750;51.636;4.948;2022-12-07T00:27:12;101995.13;;;10.26;62.17
59873;BME280;50750;51.636;4.948;2022-12-07T00:29:38;101994.98;;;10.27;62.13
59873;BME280;50750;51.636;4.948;2022-12-07T00:32:03;101991.46;;;10.28;62.12
59873;BME280;50750;51.636;4.948;2022-12-07T00:34:29;101990.77;;;10.29;61.99
59873;BME280;50750;51.636;4.948;2022-12-07T00:36:55;101987.77;;;10.30;62.14
59873;BME280;50750;51.636;4.948;2022-12-07T00:39:21;101989.85;;;10.31;62.05
59873;BME280;50750;51.636;4.948;2022-12-07T00:41:47;101990.20;;;10.31;62.08
59873;BME280;50750;51.636;4.948;2022-12-07T00:44:13;101988.98;;;10.32;62.05
59873;BME280;50750;51.636;4.948;2022-12-07T00:46:39;101985.48;;;10.32;61.97
59873;BME280;50750;51.636;4.948;2022-12-07T00:49:05;101988.28;;;10.32;62.06
59873;BME280;50750;51.636;4.948;2022-12-07T00:51:31;101983.91;;;10.32;61.99
59873;BME280;50750;51.636;4.948;2022-12-07T00:53:57;101983.20;;;10.31;62.07
59873;BME280;50750;51.636;4.948;2022-12-07T00:56:25;101982.85;;;10.31;62.10
59873;BME280;50750;51.636;4.948;2022-12-07T00:59:00;101980.56;;;10.31;62.07
59873;BME280;50750;51.636;4.948;2022-12-07T01:01:32;101978.83;;;10.31;62.06
59873;BME280;50750;51.636;4.948;2022-12-07T01:03:58;101979.34;;;10.31;62.01
59873;BME280;50750;51.636;4.948;2022-12-07T01:06:27;101981.30;;;10.30;62.06
59873;BME280;50750;51.636;4.948;2022-12-07T01:08:53;101998.98;;;10.29;62.06
59873;BME280;50750;51.636;4.948;2022-12-07T01:11:22;102004.40;;;10.29;62.05
59873;BME280;50750;51.636;4.948;2022-12-07T01:13:53;102001.44;;;10.28;62.07
59873;BME280;50750;51.636;4.948;2022-12-07T01:16:21;101998.48;;;10.28;62.08
59873;BME280;50750;51.636;4.948;2022-12-07T01:18:49;101992.52;;;10.27;62.10
59873;BME280;50750;51.636;4.948;2022-12-07T01:21:27;101982.90;;;10.27;62.14
59873;BME280;50750;51.636;4.948;2022-12-07T01:23:54;101979.23;;;10.26;62.20
59873;BME280;50750;51.636;4.948;2022-12-07T01:26:23;101980.79;;;10.26;62.21
59873;BME280;50750;51.636;4.948;2022-12-07T01:28:50;101984.11;;;10.26;62.30
59873;BME280;50750;51.636;4.948;2022-12-07T01:31:19;101981.50;;;10.25;62.12
59873;BME280;50750;51.636;4.948;2022-12-07T01:33:48;101972.05;;;10.24;62.36
59873;BME280;50750;51.636;4.948;2022-12-07T01:38:42;101971.33;;;10.26;62.31
59873;BME280;50750;51.636;4.948;2022-12-07T01:41:09;101967.84;;;10.27;62.19
59873;BME280;50750;51.636;4.948;2022-12-07T01:43:35;101975.02;;;10.28;62.05
59873;BME280;50750;51.636;4.948;2022-12-07T01:46:04;101974.84;;;10.29;62.09
59873;BME280;50750;51.636;4.948;2022-12-07T01:48:40;101978.13;;;10.30;62.14
59873;BME280;50750;51.636;4.948;2022-12-07T01:51:11;101977.23;;;10.32;62.11
59873;BME280;50750;51.636;4.948;2022-12-07T01:53:43;101979.52;;;10.32;62.06
59873;BME280;50750;51.636;4.948;2022-12-07T01:56:17;101978.11;;;10.33;62.08
59873;BME280;50750;51.636;4.948;2022-12-07T01:58:44;101981.77;;;10.33;62.03
59873;BME280;50750;51.636;4.948;2022-12-07T02:01:10;101984.58;;;10.33;62.00
59873;BME280;50750;51.636;4.948;2022-12-07T02:03:41;101986.67;;;10.33;62.01
59873;BME280;50750;51.636;4.948;2022-12-07T02:06:10;101981.79;;;10.33;62.02
59873;BME280;50750;51.636;4.948;2022-12-07T02:08:37;101984.40;;;10.33;61.92
59873;BME280;50750;51.636;4.948;2022-12-07T02:11:04;101979.34;;;10.32;62.05
59873;BME280;50750;51.636;4.948;2022-12-07T02:13:34;101984.77;;;10.32;62.04
59873;BME280;50750;51.636;4.948;2022-12-07T02:27:34;101993.90;;;10.30;62.10
59873;BME280;50750;51.636;4.948;2022-12-07T02:30:13;101980.95;;;10.28;62.12
59873;BME280;50750;51.636;4.948;2022-12-07T02:35:30;101975.89;;;10.26;62.16
59873;BME280;50750;51.636;4.948;2022-12-07T02:40:42;101973.09;;;10.25;62.16
59873;BME280;50750;51.636;4.948;2022-12-07T02:43:26;101975.19;;;10.25;62.20
59873;BME280;50750;51.636;4.948;2022-12-07T02:45:59;101969.95;;;10.24;62.14
59873;BME280;50750;51.636;4.948;2022-12-07T02:48:27;101970.48;;;10.24;62.26
59873;BME280;50750;51.636;4.948;2022-12-07T02:50:54;101972.75;;;10.23;62.23
59873;BME280;50750;51.636;4.948;2022-12-07T02:53:35;101972.41;;;10.24;62.24
59873;BME280;50750;51.636;4.948;2022-12-07T03:01:28;101973.27;;;10.27;62.12
59873;BME280;50750;51.636;4.948;2022-12-07T03:18:42;101975.48;;;10.31;62.13
59873;BME280;50750;51.636;4.948;2022-12-07T03:21:15;101971.30;;;10.31;62.11
59873;BME280;50750;51.636;4.948;2022-12-07T03:23:45;101967.96;;;10.31;62.11
59873;BME280;50750;51.636;4.948;2022-12-07T03:26:15;101970.60;;;10.31;62.11
59873;BME280;50750;51.636;4.948;2022-12-07T03:28:49;101965.86;;;10.31;62.11
59873;BME280;50750;51.636;4.948;2022-12-07T03:31:23;101963.43;;;10.30;62.23
59873;BME280;50750;51.636;4.948;2022-12-07T03:34:07;101967.30;;;10.30;62.10
59873;BME280;50750;51.636;4.948;2022-12-07T03:36:50;101966.06;;;10.30;62.19
59873;BME280;50750;51.636;4.948;2022-12-07T03:42:00;101964.16;;;10.28;62.11
59873;BME280;50750;51.636;4.948;2022-12-07T03:44:28;101962.06;;;10.28;62.00
59873;BME280;50750;51.636;4.948;2022-12-07T03:47:16;101959.42;;;10.27;62.17
59873;BME280;50750;51.636;4.948;2022-12-07T03:49:58;101966.96;;;10.27;62.08
59873;BME280;50750;51.636;4.948;2022-12-07T03:52:30;101966.42;;;10.27;62.19
59873;BME280;50750;51.636;4.948;2022-12-07T03:55:12;101962.41;;;10.26;62.22
59873;BME280;50750;51.636;4.948;2022-12-07T03:57:40;101963.28;;;10.25;62.21
59873;BME280;50750;51.636;4.948;2022-12-07T04:00:09;101961.71;;;10.25;62.14
59873;BME280;50750;51.636;4.948;2022-12-07T04:02:36;101965.23;;;10.24;62.35
59873;BME280;50750;51.636;4.948;2022-12-07T04:05:03;101963.30;;;10.24;62.31
59873;BME280;50750;51.636;4.948;2022-12-07T04:07:29;101966.45;;;10.24;62.24
59873;BME280;50750;51.636;4.948;2022-12-07T04:09:55;101966.80;;;10.24;62.23
59873;BME280;50750;51.636;4.948;2022-12-07T04:12:21;101956.28;;;10.25;62.16
59873;BME280;50750;51.636;4.948;2022-12-07T04:14:47;101949.98;;;10.26;62.19
59873;BME280;50750;51.636;4.948;2022-12-07T04:17:13;101953.66;;;10.27;62.14
59873;BME280;50750;51.636;4.948;2022-12-07T04:19:39;101953.30;;;10.27;62.08
59873;BME280;50750;51.636;4.948;2022-12-07T04:22:06;101955.75;;;10.28;62.09
59873;BME280;50750;51.636;4.948;2022-12-07T04:24:33;101958.73;;;10.29;62.23
59873;BME280;50750;51.636;4.948;2022-12-07T04:26:59;101969.92;;;10.29;61.97
59873;BME280;50750;51.636;4.948;2022-12-07T04:29:26;101974.98;;;10.30;62.17
59873;BME280;50750;51.636;4.948;2022-12-07T04:31:52;101967.29;;;10.30;62.20
59873;BME280;50750;51.636;4.948;2022-12-07T04:34:19;101955.55;;;10.30;62.25
59873;BME280;50750;51.636;4.948;2022-12-07T04:36:46;101948.72;;;10.30;62.07
59873;BME280;50750;51.636;4.948;2022-12-07T04:39:31;101950.48;;;10.30;62.11
59873;BME280;50750;51.636;4.948;2022-12-07T04:41:58;101945.77;;;10.29;62.12
59873;BME280;50750;51.636;4.948;2022-12-07T04:44:25;101943.84;;;10.28;62.09
59873;BME280;50750;51.636;4.948;2022-12-07T04:46:52;101942.10;;;10.28;62.10
59873;BME280;50750;51.636;4.948;2022-12-07T04:49:19;101939.48;;;10.28;62.11
59873;BME280;50750;51.636;4.948;2022-12-07T04:51:45;101936.34;;;10.27;62.05
59873;BME280;50750;51.636;4.948;2022-12-07T04:54:13;101935.62;;;10.27;62.14
59873;BME280;50750;51.636;4.948;2022-12-07T04:56:39;101933.52;;;10.27;62.21
59873;BME280;50750;51.636;4.948;2022-12-07T04:59:05;101933.35;;;10.26;62.13
59873;BME280;50750;51.636;4.948;2022-12-07T05:01:32;101930.36;;;10.26;62.16
59873;BME280;50750;51.636;4.948;2022-12-07T05:03:58;101929.48;;;10.25;62.29
59873;BME280;50750;51.636;4.948;2022-12-07T05:06:25;101928.98;;;10.24;62.18
59873;BME280;50750;51.636;4.948;2022-12-07T05:08:51;101928.30;;;10.24;62.20
59873;BME280;50750;51.636;4.948;2022-12-07T05:11:17;101928.29;;;10.24;62.18
59873;BME280;50750;51.636;4.948;2022-12-07T05:14:02;101925.85;;;10.23;62.27
59873;BME280;50750;51.636;4.948;2022-12-07T05:16:29;101925.85;;;10.23;62.23
59873;BME280;50750;51.636;4.948;2022-12-07T05:18:55;101919.91;;;10.22;62.20
59873;BME280;50750;51.636;4.948;2022-12-07T05:21:21;101923.40;;;10.23;62.24
59873;BME280;50750;51.636;4.948;2022-12-07T05:23:47;101923.05;;;10.24;62.25
59873;BME280;50750;51.636;4.948;2022-12-07T05:26:12;101925.48;;;10.25;62.25
59873;BME280;50750;51.636;4.948;2022-12-07T05:28:38;101920.56;;;10.25;62.10
59873;BME280;50750;51.636;4.948;2022-12-07T05:31:04;101921.09;;;10.26;62.06
59873;BME280;50750;51.636;4.948;2022-12-07T05:33:30;101923.39;;;10.27;62.13
59873;BME280;50750;51.636;4.948;2022-12-07T05:35:56;101923.70;;;10.28;62.09
59873;BME280;50750;51.636;4.948;2022-12-07T05:38:23;101920.23;;;10.28;62.00
59873;BME280;50750;51.636;4.948;2022-12-07T05:40:50;101922.13;;;10.29;62.04
59873;BME280;50750;51.636;4.948;2022-12-07T05:43:16;101922.11;;;10.29;62.05
59873;BME280;50750;51.636;4.948;2022-12-07T05:45:42;101919.69;;;10.29;62.09
59873;BME280;50750;51.636;4.948;2022-12-07T05:48:08;101923.70;;;10.28;62.08
59873;BME280;50750;51.636;4.948;2022-12-07T05:50:34;101926.67;;;10.28;62.01
59873;BME280;50750;51.636;4.948;2022-12-07T05:53:00;101926.86;;;10.28;62.03
59873;BME280;50750;51.636;4.948;2022-12-07T05:55:26;101930.03;;;10.27;62.01
59873;BME280;50750;51.636;4.948;2022-12-07T05:57:52;101931.43;;;10.28;62.09
59873;BME280;50750;51.636;4.948;2022-12-07T06:00:36;101928.10;;;10.27;62.00
59873;BME280;50750;51.636;4.948;2022-12-07T06:03:02;101920.57;;;10.26;62.00
59873;BME280;50750;51.636;4.948;2022-12-07T06:05:28;101922.84;;;10.26;61.99
59873;BME280;50750;51.636;4.948;2022-12-07T06:07:54;101921.61;;;10.25;62.01
59873;BME280;50750;51.636;4.948;2022-12-07T06:10:20;101917.25;;;10.25;62.01
59873;BME280;50750;51.636;4.948;2022-12-07T06:12:46;101918.30;;;10.25;61.97
59873;BME280;50750;51.636;4.948;2022-12-07T06:15:12;101916.73;;;10.25;62.01
59873;BME280;50750;51.636;4.948;2022-12-07T06:17:39;101920.94;;;10.24;62.06
59873;BME280;50750;51.636;4.948;2022-12-07T06:20:06;101921.98;;;10.24;62.09
59873;BME280;50750;51.636;4.948;2022-12-07T06:22:32;101923.58;;;10.23;62.05
59873;BME280;50750;51.636;4.948;2022-12-07T06:24:58;101923.58;;;10.23;62.09
59873;BME280;50750;51.636;4.948;2022-12-07T06:27:24;101922.89;;;10.22;62.08
59873;BME280;50750;51.636;4.948;2022-12-07T06:29:50;101924.81;;;10.22;62.07
59873;BME280;50750;51.636;4.948;2022-12-07T06:32:16;101919.92;;;10.21;62.10
59873;BME280;50750;51.636;4.948;2022-12-07T06:34:42;101920.79;;;10.22;62.12
59873;BME280;50750;51.636;4.948;2022-12-07T06:37:08;101920.26;;;10.22;62.10
59873;BME280;50750;51.636;4.948;2022-12-07T06:39:34;101918.49;;;10.24;62.05
59873;BME280;50750;51.636;4.948;2022-12-07T06:42:00;101917.07;;;10.25;61.96
59873;BME280;50750;51.636;4.948;2022-12-07T06:44:26;101917.06;;;10.26;61.94
59873;BME280;50750;51.636;4.948;2022-12-07T06:46:52;101921.64;;;10.27;61.79
59873;BME280;50750;51.636;4.948;2022-12-07T06:49:18;101921.10;;;10.28;61.87
59873;BME280;50750;51.636;4.948;2022-12-07T06:51:44;101921.80;;;10.28;61.63
59873;BME280;50750;51.636;4.948;2022-12-07T06:54:12;101924.77;;;10.26;60.98
59873;BME280;50750;51.636;4.948;2022-12-07T06:56:38;101931.95;;;10.25;61.02
59873;BME280;50750;51.636;4.948;2022-12-07T06:59:05;101934.94;;;10.25;61.16
59873;BME280;50750;51.636;4.948;2022-12-07T07:01:34;101944.05;;;10.24;61.24
59873;BME280;50750;51.636;4.948;2022-12-07T07:04:00;101942.13;;;10.24;61.31
59873;BME280;50750;51.636;4.948;2022-12-07T07:06:26;101939.15;;;10.23;61.39
59873;BME280;50750;51.636;4.948;2022-12-07T07:08:52;101943.70;;;10.23;61.57
59873;BME280;50750;51.636;4.948;2022-12-07T07:11:19;101947.22;;;10.22;61.46
59873;BME280;50750;51.636;4.948;2022-12-07T07:13:45;101944.95;;;10.22;61.56
59873;BME280;50750;51.636;4.948;2022-12-07T07:16:11;101947.05;;;10.21;61.58
59873;BME280;50750;51.636;4.948;2022-12-07T07:18:37;101948.80;;;10.21;61.59
59873;BME280;50750;51.636;4.948;2022-12-07T07:21:03;101947.92;;;10.21;61.60
59873;BME280;50750;51.636;4.948;2022-12-07T07:23:29;101946.36;;;10.20;61.56
59873;BME280;50750;51.636;4.948;2022-12-07T07:25:55;101946.88;;;10.20;61.63
59873;BME280;50750;51.636;4.948;2022-12-07T07:28:21;101945.84;;;10.20;61.70
59873;BME280;50750;51.636;4.948;2022-12-07T07:30:47;101944.45;;;10.18;61.64
59873;BME280;50750;51.636;4.948;2022-12-07T07:33:14;101940.08;;;10.18;61.72
59873;BME280;50750;51.636;4.948;2022-12-07T07:35:40;101936.23;;;10.18;61.70
59873;BME280;50750;51.636;4.948;2022-12-07T07:38:07;101940.77;;;10.18;61.66
59873;BME280;50750;51.636;4.948;2022-12-07T07:40:34;101936.06;;;10.17;61.67
59873;BME280;50750;51.636;4.948;2022-12-07T07:43:00;101940.45;;;10.16;61.71
59873;BME280;50750;51.636;4.948;2022-12-07T07:45:26;101938.36;;;10.16;61.78
59873;BME280;50750;51.636;4.948;2022-12-07T07:47:53;101939.95;;;10.15;61.83
59873;BME280;50750;51.636;4.948;2022-12-07T07:50:19;101939.24;;;10.15;61.68
59873;BME280;50750;51.636;4.948;2022-12-07T07:52:45;101939.92;;;10.15;61.79
59873;BME280;50750;51.636;4.948;2022-12-07T07:55:11;101938.37;;;10.15;61.79
59873;BME280;50750;51.636;4.948;2022-12-07T07:57:39;101938.71;;;10.15;61.76
59873;BME280;50750;51.636;4.948;2022-12-07T08:00:08;101939.06;;;10.15;61.87
59873;BME280;50750;51.636;4.948;2022-12-07T08:02:34;101941.52;;;10.14;61.85
59873;BME280;50750;51.636;4.948;2022-12-07T08:05:00;101938.39;;;10.13;61.85
59873;BME280;50750;51.636;4.948;2022-12-07T08:07:27;101943.45;;;10.14;61.84
59873;BME280;50750;51.636;4.948;2022-12-07T08:09:53;101949.92;;;10.16;61.84
59873;BME280;50750;51.636;4.948;2022-12-07T08:12:19;101954.63;;;10.17;61.76
59873;BME280;50750;51.636;4.948;2022-12-07T08:14:45;101961.61;;;10.17;61.79
59873;BME280;50750;51.636;4.948;2022-12-07T08:17:12;101967.21;;;10.18;61.83
59873;BME280;50750;51.636;4.948;2022-12-07T08:19:38;101973.50;;;10.20;61.67
59873;BME280;50750;51.636;4.948;2022-12-07T08:22:04;101968.05;;;10.20;61.75
59873;BME280;50750;51.636;4.948;2022-12-07T08:24:33;101959.66;;;10.20;61.79
59873;BME280;50750;51.636;4.948;2022-12-07T08:26:59;101956.15;;;10.21;61.72
59873;BME280;50750;51.636;4.948;2022-12-07T08:29:25;101953.19;;;10.21;61.60
59873;BME280;50750;51.636;4.948;2022-12-07T08:31:51;101954.77;;;10.21;61.67
59873;BME280;50750;51.636;4.948;2022-12-07T08:34:17;101954.05;;;10.21;61.64
59873;BME280;50750;51.636;4.948;2022-12-07T08:36:43;101952.30;;;10.21;61.72
59873;BME280;50750;51.636;4.948;2022-12-07T08:39:09;101956.67;;;10.21;61.75
59873;BME280;50750;51.636;4.948;2022-12-07T08:41:35;101960.52;;;10.20;61.70
59873;BME280;50750;51.636;4.948;2022-12-07T08:44:02;101962.99;;;10.20;61.66
59873;BME280;50750;51.636;4.948;2022-12-07T08:46:38;101963.00;;;10.20;61.78
59873;BME280;50750;51.636;4.948;2022-12-07T08:49:12;101960.20;;;10.19;61.70
59873;BME280;50750;51.636;4.948;2022-12-07T08:51:40;101958.81;;;10.19;61.75
59873;BME280;50750;51.636;4.948;2022-12-07T08:54:09;101955.13;;;10.19;61.82
59873;BME280;50750;51.636;4.948;2022-12-07T08:56:36;101952.85;;;10.19;61.84
59873;BME280;50750;51.636;4.948;2022-12-07T08:59:04;101952.15;;;10.20;61.75
59873;BME280;50750;51.636;4.948;2022-12-07T09:01:30;101954.77;;;10.20;61.79
59873;BME280;50750;51.636;4.948;2022-12-07T09:03:56;101955.48;;;10.19;61.73
59873;BME280;50750;51.636;4.948;2022-12-07T09:06:22;101954.95;;;10.20;61.78
59873;BME280;50750;51.636;4.948;2022-12-07T09:08:51;101956.50;;;10.21;61.80
59873;BME280;50750;51.636;4.948;2022-12-07T09:11:19;101956.13;;;10.24;61.68
59873;BME280;50750;51.636;4.948;2022-12-07T09:13:45;101953.48;;;10.26;61.57
59873;BME280;50750;51.636;4.948;2022-12-07T09:16:11;101948.93;;;10.27;61.73
59873;BME280;50750;51.636;4.948;2022-12-07T09:18:37;101951.19;;;10.29;61.60
59873;BME280;50750;51.636;4.948;2022-12-07T09:21:04;101952.21;;;10.33;61.59
59873;BME280;50750;51.636;4.948;2022-12-07T09:23:30;101947.80;;;10.35;61.59
59873;BME280;50750;51.636;4.948;2022-12-07T09:26:01;101950.58;;;10.37;61.43
59873;BME280;50750;51.636;4.948;2022-12-07T09:28:27;101949.84;;;10.39;61.38
59873;BME280;50750;51.636;4.948;2022-12-07T09:30:53;101953.15;;;10.41;61.40
59873;BME280;50750;51.636;4.948;2022-12-07T09:33:18;101953.67;;;10.42;61.33
59873;BME280;50750;51.636;4.948;2022-12-07T09:35:46;101952.59;;;10.44;61.36
59873;BME280;50750;51.636;4.948;2022-12-07T09:38:12;101947.15;;;10.44;61.24
59873;BME280;50750;51.636;4.948;2022-12-07T09:40:39;101947.34;;;10.45;61.22
59873;BME280;50750;51.636;4.948;2022-12-07T09:43:12;101948.38;;;10.46;61.18
59873;BME280;50750;51.636;4.948;2022-12-07T09:45:39;101949.43;;;10.46;61.25
59873;BME280;50750;51.636;4.948;2022-12-07T09:48:08;101949.27;;;10.45;61.20
59873;BME280;50750;51.636;4.948;2022-12-07T09:50:39;101946.98;;;10.45;61.19
59873;BME280;50750;51.636;4.948;2022-12-07T09:53:17;101944.34;;;10.45;61.13
59873;BME280;50750;51.636;4.948;2022-12-07T09:55:46;101949.78;;;10.44;61.23
59873;BME280;50750;51.636;4.948;2022-12-07T09:58:20;101949.98;;;10.43;61.28
59873;BME280;50750;51.636;4.948;2022-12-07T10:00:49;101949.64;;;10.43;61.26
59873;BME280;50750;51.636;4.948;2022-12-07T10:03:16;101948.41;;;10.42;61.30
59873;BME280;50750;51.636;4.948;2022-12-07T10:05:46;101947.73;;;10.42;61.31
59873;BME280;50750;51.636;4.948;2022-12-07T10:08:14;101941.25;;;10.40;61.32
59873;BME280;50750;51.636;4.948;2022-12-07T10:10:43;101936.55;;;10.39;61.49
59873;BME280;50750;51.636;4.948;2022-12-07T10:13:14;101937.78;;;10.38;61.37
59873;BME280;50750;51.636;4.948;2022-12-07T10:15:59;101939.54;;;10.37;61.38
59873;BME280;50750;51.636;4.948;2022-12-07T10:18:26;101936.92;;;10.37;61.42
59873;BME280;50750;51.636;4.948;2022-12-07T10:21:14;101934.66;;;10.35;61.45
59873;BME280;50750;51.636;4.948;2022-12-07T10:28:53;101929.44;;;10.33;61.55
59873;BME280;50750;51.636;4.948;2022-12-07T10:31:22;101926.47;;;10.32;61.51
59873;BME280;50750;51.636;4.948;2022-12-07T10:36:21;101917.20;;;10.32;61.58
59873;BME280;50750;51.636;4.948;2022-12-07T10:38:53;101914.74;;;10.32;61.52
59873;BME280;50750;51.636;4.948;2022-12-07T10:41:24;101915.24;;;10.33;61.59
59873;BME280;50750;51.636;4.948;2022-12-07T10:43:55;101919.11;;;10.34;61.53
59873;BME280;50750;51.636;4.948;2022-12-07T10:46:46;101920.49;;;10.34;61.61
59873;BME280;50750;51.636;4.948;2022-12-07T11:00:24;101909.61;;;10.37;61.46
59873;BME280;50750;51.636;4.948;2022-12-07T11:05:54;101897.36;;;10.36;61.55
59873;BME280;50750;51.636;4.948;2022-12-07T11:11:23;101882.67;;;10.34;61.46
59873;BME280;50750;51.636;4.948;2022-12-07T11:24:14;101876.59;;;10.32;61.55
59873;BME280;50750;51.636;4.948;2022-12-07T11:38:15;101864.88;;;10.29;61.65
59873;BME280;50750;51.636;4.948;2022-12-07T11:40:48;101861.22;;;10.28;61.67
59873;BME280;50750;51.636;4.948;2022-12-07T11:43:22;101859.99;;;10.28;61.76
59873;BME280;50750;51.636;4.948;2022-12-07T11:46:04;101858.08;;;10.28;61.78
59873;BME280;50750;51.636;4.948;2022-12-07T11:48:35;101859.29;;;10.28;61.74
59873;BME280;50750;51.636;4.948;2022-12-07T11:51:07;101853.70;;;10.28;61.74
59873;BME280;50750;51.636;4.948;2022-12-07T11:53:40;101852.83;;;10.28;61.70
59873;BME280;50750;51.636;4.948;2022-12-07T11:56:09;101850.19;;;10.28;61.77
59873;BME280;50750;51.636;4.948;2022-12-07T11:59:10;101850.02;;;10.27;61.75
59873;BME280;50750;51.636;4.948;2022-12-07T12:06:36;101844.23;;;10.28;61.66
59873;BME280;50750;51.636;4.948;2022-12-07T12:20:52;101822.63;;;10.35;61.65
59873;BME280;50750;51.636;4.948;2022-12-07T12:26:02;101819.61;;;10.37;61.60
59873;BME280;50750;51.636;4.948;2022-12-07T12:28:40;101817.52;;;10.37;61.60
59873;BME280;50750;51.636;4.948;2022-12-07T12:31:15;101816.45;;;10.37;61.65
59873;BME280;50750;51.636;4.948;2022-12-07T12:33:45;101815.92;;;10.38;61.68
59873;BME280;50750;51.636;4.948;2022-12-07T12:46:57;101798.25;;;10.37;61.57
59873;BME280;50750;51.636;4.948;2022-12-07T12:54:35;101794.93;;;10.37;61.57
59873;BME280;50750;51.636;4.948;2022-12-07T12:57:27;101790.55;;;10.37;61.66
59873;BME280;50750;51.636;4.948;2022-12-07T13:02:32;101785.30;;;10.37;61.69
59873;BME280;50750;51.636;4.948;2022-12-07T13:15:46;101775.16;;;10.35;61.77
59873;BME280;50750;51.636;4.948;2022-12-07T13:31:50;101774.84;;;10.33;61.93
59873;BME280;50750;51.636;4.948;2022-12-07T13:37:02;101768.88;;;10.33;61.90
59873;BME280;50750;51.636;4.948;2022-12-07T13:39:33;101769.55;;;10.35;61.87
59873;BME280;50750;51.636;4.948;2022-12-07T13:42:11;101766.40;;;10.36;61.82
59873;BME280;50750;51.636;4.948;2022-12-07T13:44:41;101755.52;;;10.38;61.85
59873;BME280;50750;51.636;4.948;2022-12-07T13:47:20;101754.61;;;10.39;61.78
59873;BME280;50750;51.636;4.948;2022-12-07T13:49:52;101749.02;;;10.40;61.77
59873;BME280;50750;51.636;4.948;2022-12-07T13:54:57;101743.89;;;10.42;61.78
59873;BME280;50750;51.636;4.948;2022-12-07T13:57:26;101742.66;;;10.43;61.68
59873;BME280;50750;51.636;4.948;2022-12-07T13:59:52;101739.52;;;10.43;61.69
59873;BME280;50750;51.636;4.948;2022-12-07T14:02:26;101739.50;;;10.44;61.70
59873;BME280;50750;51.636;4.948;2022-12-07T14:07:34;101726.20;;;10.44;61.63
59873;BME280;50750;51.636;4.948;2022-12-07T14:10:04;101726.73;;;10.44;61.67
59873;BME280;50750;51.636;4.948;2022-12-07T14:12:32;101721.48;;;10.44;61.66
59873;BME280;50750;51.636;4.948;2022-12-07T14:15:02;101715.00;;;10.44;61.69
59873;BME280;50750;51.636;4.948;2022-12-07T14:17:28;101715.17;;;10.43;61.65
59873;BME280;50750;51.636;4.948;2022-12-07T14:19:59;101712.56;;;10.43;61.66
59873;BME280;50750;51.636;4.948;2022-12-07T14:22:30;101713.77;;;10.43;61.70
59873;BME280;50750;51.636;4.948;2022-12-07T14:25:01;101710.63;;;10.42;61.71
59873;BME280;50750;51.636;4.948;2022-12-07T14:27:32;101710.81;;;10.42;61.61
59873;BME280;50750;51.636;4.948;2022-12-07T14:30:03;101706.80;;;10.41;61.67
59873;BME280;50750;51.636;4.948;2022-12-07T14:32:30;101709.41;;;10.42;61.69
59873;BME280;50750;51.636;4.948;2022-12-07T14:35:09;101709.27;;;10.41;61.76
59873;BME280;50750;51.636;4.948;2022-12-07T14:37:36;101706.12;;;10.41;61.74
59873;BME280;50750;51.636;4.948;2022-12-07T14:40:04;101706.13;;;10.40;61.79
59873;BME280;50750;51.636;4.948;2022-12-07T14:42:31;101702.95;;;10.39;61.76
59873;BME280;50750;51.636;4.948;2022-12-07T14:44:57;101705.23;;;10.39;61.81
59873;BME280;50750;51.636;4.948;2022-12-07T14:47:25;101699.13;;;10.39;61.64
59873;BME280;50750;51.636;4.948;2022-12-07T14:49:51;101699.83;;;10.38;61.81
59873;BME280;50750;51.636;4.948;2022-12-07T14:52:23;101692.84;;;10.38;61.81
59873;BME280;50750;51.636;4.948;2022-12-07T14:54:50;101687.07;;;10.37;61.82
59873;BME280;50750;51.636;4.948;2022-12-07T14:57:16;101683.20;;;10.38;61.84
59873;BME280;50750;51.636;4.948;2022-12-07T14:59:42;101690.17;;;10.39;61.86
59873;BME280;50750;51.636;4.948;2022-12-07T15:02:11;101687.89;;;10.41;61.78
59873;BME280;50750;51.636;4.948;2022-12-07T15:04:38;101682.45;;;10.42;61.78
59873;BME280;50750;51.636;4.948;2022-12-07T15:07:09;101684.90;;;10.43;61.72
59873;BME280;50750;51.636;4.948;2022-12-07T15:09:37;101684.01;;;10.43;61.75
59873;BME280;50750;51.636;4.948;2022-12-07T15:12:03;101679.26;;;10.44;61.73
59873;BME280;50750;51.636;4.948;2022-12-07T15:14:29;101676.97;;;10.45;61.67
59873;BME280;50750;51.636;4.948;2022-12-07T15:16:55;101675.21;;;10.45;61.75
59873;BME280;50750;51.636;4.948;2022-12-07T15:19:23;101676.98;;;10.45;61.79
59873;BME280;50750;51.636;4.948;2022-12-07T15:21:52;101678.55;;;10.45;61.70
59873;BME280;50750;51.636;4.948;2022-12-07T15:24:19;101676.10;;;10.45;61.77
59873;BME280;50750;51.636;4.948;2022-12-07T15:26:46;101678.37;;;10.45;61.65
59873;BME280;50750;51.636;4.948;2022-12-07T15:29:13;101676.28;;;10.44;61.75
59873;BME280;50750;51.636;4.948;2022-12-07T15:31:40;101670.86;;;10.44;61.76
59873;BME280;50750;51.636;4.948;2022-12-07T15:34:06;101672.27;;;10.43;61.85
59873;BME280;50750;51.636;4.948;2022-12-07T15:36:33;101671.57;;;10.44;61.75